sensor_id;sensor_type;location;lat;lon;timestamp;temperature;humidity
16491;DHT22;8356;51.214;3.270;2022-07-29T00:00:40;537.60;2406.40
16491;DHT22;8356;51.214;3.270;2022-07-29T00:03:06;512.80;2380.80
16491;DHT22;8356;51.214;3.270;2022-07-29T00:05:31;512.70;2380.80
16491;DHT22;8356;51.214;3.270;2022-07-29T00:07:57;512.70;2380.80
16491;DHT22;8356;51.214;3.270;2022-07-29T00:10:23;512.70;2380.80
16491;DHT22;8356;51.214;3.270;2022-07-29T00:12:48;512.70;2380.80
16491;DHT22;8356;51.214;3.270;2022-07-29T00:15:14;512.60;2380.80
16491;DHT22;8356;51.214;3.270;2022-07-29T00:17:40;512.60;2380.80
16491;DHT22;8356;51.214;3.270;2022-07-29T00:20:06;512.60;2380.80
16491;DHT22;8356;51.214;3.270;2022-07-29T00:22:38;512.60;2380.80
16491;DHT22;8356;51.214;3.270;2022-07-29T00:25:05;538.00;2406.40
16491;DHT22;8356;51.214;3.270;2022-07-29T00:27:34;512.60;2380.80
16491;DHT22;8356;51.214;3.270;2022-07-29T00:30:00;512.50;2380.80
16491;DHT22;8356;51.214;3.270;2022-07-29T00:32:26;512.30;2380.80
16491;DHT22;8356;51.214;3.270;2022-07-29T00:34:54;512.30;2380.80
16491;DHT22;8356;51.214;3.270;2022-07-29T00:37:38;512.30;2380.80
16491;DHT22;8356;51.214;3.270;2022-07-29T00:40:05;512.20;2380.80
16491;DHT22;8356;51.214;3.270;2022-07-29T00:42:40;512.20;2380.80
16491;DHT22;8356;51.214;3.270;2022-07-29T00:45:06;512.30;2380.80
16491;DHT22;8356;51.214;3.270;2022-07-29T00:47:32;512.20;2380.80
16491;DHT22;8356;51.214;3.270;2022-07-29T00:49:57;512.10;2380.80
16491;DHT22;8356;51.214;3.270;2022-07-29T00:52:23;512.10;2380.80
16491;DHT22;8356;51.214;3.270;2022-07-29T00:54:48;512.10;2380.80
16491;DHT22;8356;51.214;3.270;2022-07-29T00:57:14;512.00;2380.80
16491;DHT22;8356;51.214;3.270;2022-07-29T00:59:40;487.30;2380.80
16491;DHT22;8356;51.214;3.270;2022-07-29T01:02:06;487.30;2380.80
16491;DHT22;8356;51.214;3.270;2022-07-29T01:04:35;487.30;2380.80
16491;DHT22;8356;51.214;3.270;2022-07-29T01:07:02;487.30;2380.80
16491;DHT22;8356;51.214;3.270;2022-07-29T01:09:27;487.30;2380.80
16491;DHT22;8356;51.214;3.270;2022-07-29T01:11:54;487.30;2380.80
16491;DHT22;8356;51.214;3.270;2022-07-29T01:14:21;487.20;2380.80
16491;DHT22;8356;51.214;3.270;2022-07-29T01:17:00;487.10;2380.80
16491;DHT22;8356;51.214;3.270;2022-07-29T01:22:07;487.20;2380.80
16491;DHT22;8356;51.214;3.270;2022-07-29T01:29:57;487.10;2380.80
16491;DHT22;8356;51.214;3.270;2022-07-29T01:32:26;487.10;2380.80
16491;DHT22;8356;51.214;3.270;2022-07-29T01:35:18;487.10;2380.80
16491;DHT22;8356;51.214;3.270;2022-07-29T01:38:31;487.10;2380.80
16491;DHT22;8356;51.214;3.270;2022-07-29T01:40:53;487.10;2380.80
16491;DHT22;8356;51.214;3.270;2022-07-29T01:43:33;487.00;2380.80
16491;DHT22;8356;51.214;3.270;2022-07-29T01:46:04;487.00;2380.80
16491;DHT22;8356;51.214;3.270;2022-07-29T01:48:33;487.00;2380.80
16491;DHT22;8356;51.214;3.270;2022-07-29T01:51:21;487.00;2380.80
16491;DHT22;8356;51.214;3.270;2022-07-29T01:54:05;486.90;2380.80
16491;DHT22;8356;51.214;3.270;2022-07-29T01:56:33;486.90;2380.80
16491;DHT22;8356;51.214;3.270;2022-07-29T01:59:02;487.00;2380.80
16491;DHT22;8356;51.214;3.270;2022-07-29T02:01:31;486.90;2380.80
16491;DHT22;8356;51.214;3.270;2022-07-29T02:03:59;486.90;2380.80
16491;DHT22;8356;51.214;3.270;2022-07-29T02:06:30;486.80;2380.80
16491;DHT22;8356;51.214;3.270;2022-07-29T02:09:02;486.90;2380.80
16491;DHT22;8356;51.214;3.270;2022-07-29T02:11:30;486.80;2380.80
16491;DHT22;8356;51.214;3.270;2022-07-29T02:14:01;486.80;2380.80
16491;DHT22;8356;51.214;3.270;2022-07-29T02:16:29;486.90;2380.80
16491;DHT22;8356;51.214;3.270;2022-07-29T02:18:57;486.80;2380.80
16491;DHT22;8356;51.214;3.270;2022-07-29T02:21:25;486.80;2380.80
16491;DHT22;8356;51.214;3.270;2022-07-29T02:23:55;486.70;2380.80
16491;DHT22;8356;51.214;3.270;2022-07-29T02:26:24;486.60;2380.80
16491;DHT22;8356;51.214;3.270;2022-07-29T02:28:57;486.70;2380.80
16491;DHT22;8356;51.214;3.270;2022-07-29T02:31:25;486.70;2380.80
16491;DHT22;8356;51.214;3.270;2022-07-29T02:33:55;486.70;2380.80
16491;DHT22;8356;51.214;3.270;2022-07-29T02:36:25;486.70;2380.80
16491;DHT22;8356;51.214;3.270;2022-07-29T02:38:55;486.70;2380.80
16491;DHT22;8356;51.214;3.270;2022-07-29T02:41:35;486.70;2380.80
16491;DHT22;8356;51.214;3.270;2022-07-29T02:44:12;486.70;2380.80
16491;DHT22;8356;51.214;3.270;2022-07-29T02:46:43;486.60;2380.80
16491;DHT22;8356;51.214;3.270;2022-07-29T02:51:54;486.70;2380.80
16491;DHT22;8356;51.214;3.270;2022-07-29T02:56:59;486.80;2380.80
16491;DHT22;8356;51.214;3.270;2022-07-29T02:59:27;486.80;2380.80
16491;DHT22;8356;51.214;3.270;2022-07-29T03:01:55;486.90;2380.80
16491;DHT22;8356;51.214;3.270;2022-07-29T03:04:24;486.80;2380.80
16491;DHT22;8356;51.214;3.270;2022-07-29T03:06:52;486.70;2380.80
16491;DHT22;8356;51.214;3.270;2022-07-29T03:09:18;486.80;2380.80
16491;DHT22;8356;51.214;3.270;2022-07-29T03:11:45;486.80;2380.80
16491;DHT22;8356;51.214;3.270;2022-07-29T03:14:11;486.70;2380.80
16491;DHT22;8356;51.214;3.270;2022-07-29T03:16:38;486.70;2380.80
16491;DHT22;8356;51.214;3.270;2022-07-29T03:19:04;486.70;2380.80
16491;DHT22;8356;51.214;3.270;2022-07-29T03:21:30;486.60;2380.80
16491;DHT22;8356;51.214;3.270;2022-07-29T03:23:56;486.50;2380.80
16491;DHT22;8356;51.214;3.270;2022-07-29T03:26:22;486.50;2380.80
16491;DHT22;8356;51.214;3.270;2022-07-29T03:28:48;486.50;2380.80
16491;DHT22;8356;51.214;3.270;2022-07-29T03:31:13;486.60;2380.80
16491;DHT22;8356;51.214;3.270;2022-07-29T03:33:39;486.60;2380.80
16491;DHT22;8356;51.214;3.270;2022-07-29T03:36:04;486.60;2380.80
16491;DHT22;8356;51.214;3.270;2022-07-29T03:38:33;486.50;2380.80
16491;DHT22;8356;51.214;3.270;2022-07-29T03:41:06;486.40;2380.80
16491;DHT22;8356;51.214;3.270;2022-07-29T03:43:36;486.50;2380.80
16491;DHT22;8356;51.214;3.270;2022-07-29T03:46:04;486.40;2380.80
16491;DHT22;8356;51.214;3.270;2022-07-29T03:48:33;461.70;2380.80
16491;DHT22;8356;51.214;3.270;2022-07-29T03:51:01;461.60;2380.80
16491;DHT22;8356;51.214;3.270;2022-07-29T03:53:26;461.60;2380.80
16491;DHT22;8356;51.214;3.270;2022-07-29T03:55:56;461.60;2380.80
16491;DHT22;8356;51.214;3.270;2022-07-29T03:58:26;461.50;2380.80
16491;DHT22;8356;51.214;3.270;2022-07-29T04:00:53;461.40;2380.80
16491;DHT22;8356;51.214;3.270;2022-07-29T04:03:19;461.20;2380.80
16491;DHT22;8356;51.214;3.270;2022-07-29T04:06:01;486.60;2380.80
16491;DHT22;8356;51.214;3.270;2022-07-29T04:08:27;461.20;2380.80
16491;DHT22;8356;51.214;3.270;2022-07-29T04:10:53;461.10;2380.80
16491;DHT22;8356;51.214;3.270;2022-07-29T04:13:19;461.00;2380.80
16491;DHT22;8356;51.214;3.270;2022-07-29T04:15:45;460.90;2380.80
16491;DHT22;8356;51.214;3.270;2022-07-29T04:18:11;460.80;2380.80
16491;DHT22;8356;51.214;3.270;2022-07-29T04:20:37;460.80;2380.80
16491;DHT22;8356;51.214;3.270;2022-07-29T04:23:02;436.10;2355.20
16491;DHT22;8356;51.214;3.270;2022-07-29T04:25:28;436.00;2355.20
16491;DHT22;8356;51.214;3.270;2022-07-29T04:27:53;436.00;2355.20
16491;DHT22;8356;51.214;3.270;2022-07-29T04:30:29;436.10;2355.20
16491;DHT22;8356;51.214;3.270;2022-07-29T04:32:55;460.80;2380.80
16491;DHT22;8356;51.214;3.270;2022-07-29T04:35:21;460.80;2380.80
16491;DHT22;8356;51.214;3.270;2022-07-29T04:37:47;460.80;2380.80
16491;DHT22;8356;51.214;3.270;2022-07-29T04:40:12;436.10;2355.20
16491;DHT22;8356;51.214;3.270;2022-07-29T04:42:39;460.80;2380.80
16491;DHT22;8356;51.214;3.270;2022-07-29T04:45:05;460.80;2380.80
16491;DHT22;8356;51.214;3.270;2022-07-29T04:47:31;460.80;2380.80
16491;DHT22;8356;51.214;3.270;2022-07-29T04:49:56;460.80;2380.80
16491;DHT22;8356;51.214;3.270;2022-07-29T04:52:23;436.10;2355.20
16491;DHT22;8356;51.214;3.270;2022-07-29T04:54:48;436.10;2355.20
16491;DHT22;8356;51.214;3.270;2022-07-29T04:57:14;460.80;2380.80
16491;DHT22;8356;51.214;3.270;2022-07-29T04:59:40;460.90;2380.80
16491;DHT22;8356;51.214;3.270;2022-07-29T05:02:05;461.00;2380.80
16491;DHT22;8356;51.214;3.270;2022-07-29T05:04:31;461.00;2380.80
16491;DHT22;8356;51.214;3.270;2022-07-29T05:06:56;461.00;2380.80
16491;DHT22;8356;51.214;3.270;2022-07-29T05:09:22;460.90;2380.80
16491;DHT22;8356;51.214;3.270;2022-07-29T05:11:48;461.00;2380.80
16491;DHT22;8356;51.214;3.270;2022-07-29T05:14:13;461.10;2380.80
16491;DHT22;8356;51.214;3.270;2022-07-29T05:16:39;461.10;2380.80
16491;DHT22;8356;51.214;3.270;2022-07-29T05:19:06;461.10;2380.80
16491;DHT22;8356;51.214;3.270;2022-07-29T05:21:32;461.10;2380.80
16491;DHT22;8356;51.214;3.270;2022-07-29T05:23:57;461.10;2380.80
16491;DHT22;8356;51.214;3.270;2022-07-29T05:26:23;461.20;2380.80
16491;DHT22;8356;51.214;3.270;2022-07-29T05:28:49;461.40;2380.80
16491;DHT22;8356;51.214;3.270;2022-07-29T05:31:14;461.40;2380.80
16491;DHT22;8356;51.214;3.270;2022-07-29T05:33:41;461.40;2380.80
16491;DHT22;8356;51.214;3.270;2022-07-29T05:36:07;461.50;2380.80
16491;DHT22;8356;51.214;3.270;2022-07-29T05:38:35;461.60;2380.80
16491;DHT22;8356;51.214;3.270;2022-07-29T05:41:01;486.40;2380.80
16491;DHT22;8356;51.214;3.270;2022-07-29T05:43:28;461.70;2380.80
16491;DHT22;8356;51.214;3.270;2022-07-29T05:45:54;461.70;2380.80
16491;DHT22;8356;51.214;3.270;2022-07-29T05:48:20;486.40;2380.80
16491;DHT22;8356;51.214;3.270;2022-07-29T05:50:46;486.50;2380.80
16491;DHT22;8356;51.214;3.270;2022-07-29T05:53:11;486.50;2380.80
16491;DHT22;8356;51.214;3.270;2022-07-29T05:55:37;486.70;2380.80
16491;DHT22;8356;51.214;3.270;2022-07-29T05:58:02;486.70;2380.80
16491;DHT22;8356;51.214;3.270;2022-07-29T06:00:28;486.80;2380.80
16491;DHT22;8356;51.214;3.270;2022-07-29T06:02:54;486.90;2380.80
16491;DHT22;8356;51.214;3.270;2022-07-29T06:05:19;487.00;2380.80
16491;DHT22;8356;51.214;3.270;2022-07-29T06:07:45;486.90;2380.80
16491;DHT22;8356;51.214;3.270;2022-07-29T06:10:11;487.00;2380.80
16491;DHT22;8356;51.214;3.270;2022-07-29T06:12:36;487.00;2380.80
16491;DHT22;8356;51.214;3.270;2022-07-29T06:15:02;487.00;2380.80
16491;DHT22;8356;51.214;3.270;2022-07-29T06:17:28;487.10;2380.80
16491;DHT22;8356;51.214;3.270;2022-07-29T06:19:53;487.10;2380.80
16491;DHT22;8356;51.214;3.270;2022-07-29T06:22:19;487.10;2380.80
16491;DHT22;8356;51.214;3.270;2022-07-29T06:24:45;487.30;2380.80
16491;DHT22;8356;51.214;3.270;2022-07-29T06:27:11;487.30;2380.80
16491;DHT22;8356;51.214;3.270;2022-07-29T06:29:36;487.30;2380.80
16491;DHT22;8356;51.214;3.270;2022-07-29T06:32:03;487.30;2380.80
16491;DHT22;8356;51.214;3.270;2022-07-29T06:34:28;512.00;2380.80
16491;DHT22;8356;51.214;3.270;2022-07-29T06:36:54;512.00;2380.80
16491;DHT22;8356;51.214;3.270;2022-07-29T06:39:20;512.00;2380.80
16491;DHT22;8356;51.214;3.270;2022-07-29T06:41:49;512.00;2380.80
16491;DHT22;8356;51.214;3.270;2022-07-29T06:44:16;512.00;2380.80
16491;DHT22;8356;51.214;3.270;2022-07-29T06:46:42;512.10;2380.80
16491;DHT22;8356;51.214;3.270;2022-07-29T06:49:07;512.10;2380.80
16491;DHT22;8356;51.214;3.270;2022-07-29T06:51:33;512.20;2380.80
16491;DHT22;8356;51.214;3.270;2022-07-29T06:53:59;512.20;2380.80
16491;DHT22;8356;51.214;3.270;2022-07-29T06:56:26;512.30;2380.80
16491;DHT22;8356;51.214;3.270;2022-07-29T06:58:52;512.40;2380.80
16491;DHT22;8356;51.214;3.270;2022-07-29T07:01:17;512.50;2380.80
16491;DHT22;8356;51.214;3.270;2022-07-29T07:03:43;512.50;2380.80
16491;DHT22;8356;51.214;3.270;2022-07-29T07:06:08;512.70;2380.80
16491;DHT22;8356;51.214;3.270;2022-07-29T07:08:34;512.70;2380.80
16491;DHT22;8356;51.214;3.270;2022-07-29T07:11:00;512.80;2380.80
16491;DHT22;8356;51.214;3.270;2022-07-29T07:13:25;537.60;2406.40
16491;DHT22;8356;51.214;3.270;2022-07-29T07:15:51;537.80;2406.40
16491;DHT22;8356;51.214;3.270;2022-07-29T07:18:18;537.90;2406.40
16491;DHT22;8356;51.214;3.270;2022-07-29T07:20:44;538.00;2406.40
16491;DHT22;8356;51.214;3.270;2022-07-29T07:23:10;538.20;2406.40
16491;DHT22;8356;51.214;3.270;2022-07-29T07:25:35;538.30;2406.40
16491;DHT22;8356;51.214;3.270;2022-07-29T07:28:02;538.40;2406.40
16491;DHT22;8356;51.214;3.270;2022-07-29T07:30:27;538.50;2406.40
16491;DHT22;8356;51.214;3.270;2022-07-29T07:32:54;563.20;2432.00
16491;DHT22;8356;51.214;3.270;2022-07-29T07:35:20;563.30;2432.00
16491;DHT22;8356;51.214;3.270;2022-07-29T07:37:46;563.40;2432.00
16491;DHT22;8356;51.214;3.270;2022-07-29T07:40:12;563.40;2432.00
16491;DHT22;8356;51.214;3.270;2022-07-29T07:42:39;563.60;2432.00
16491;DHT22;8356;51.214;3.270;2022-07-29T07:45:05;563.70;2432.00
16491;DHT22;8356;51.214;3.270;2022-07-29T07:47:32;563.80;2432.00
16491;DHT22;8356;51.214;3.270;2022-07-29T07:49:57;563.90;2432.00
16491;DHT22;8356;51.214;3.270;2022-07-29T07:52:23;564.10;2432.00
16491;DHT22;8356;51.214;3.270;2022-07-29T07:54:49;588.80;2432.00
16491;DHT22;8356;51.214;3.270;2022-07-29T07:57:15;589.00;2432.00
16491;DHT22;8356;51.214;3.270;2022-07-29T07:59:41;589.00;2432.00
16491;DHT22;8356;51.214;3.270;2022-07-29T08:02:07;589.20;2432.00
16491;DHT22;8356;51.214;3.270;2022-07-29T08:04:33;589.30;2432.00
16491;DHT22;8356;51.214;3.270;2022-07-29T08:06:59;589.50;2432.00
16491;DHT22;8356;51.214;3.270;2022-07-29T08:09:26;589.60;2432.00
16491;DHT22;8356;51.214;3.270;2022-07-29T08:11:52;589.70;2432.00
16491;DHT22;8356;51.214;3.270;2022-07-29T08:14:19;614.40;2432.00
16491;DHT22;8356;51.214;3.270;2022-07-29T08:16:44;614.50;2432.00
16491;DHT22;8356;51.214;3.270;2022-07-29T08:19:10;614.60;2432.00
16491;DHT22;8356;51.214;3.270;2022-07-29T08:21:36;614.50;2432.00
16491;DHT22;8356;51.214;3.270;2022-07-29T08:24:02;614.60;2432.00
16491;DHT22;8356;51.214;3.270;2022-07-29T08:26:46;614.80;2432.00
16491;DHT22;8356;51.214;3.270;2022-07-29T08:29:12;614.90;2432.00
16491;DHT22;8356;51.214;3.270;2022-07-29T08:31:38;615.00;2432.00
16491;DHT22;8356;51.214;3.270;2022-07-29T08:34:05;615.10;2432.00
16491;DHT22;8356;51.214;3.270;2022-07-29T08:36:31;640.10;2432.00
16491;DHT22;8356;51.214;3.270;2022-07-29T08:38:57;640.40;2432.00
16491;DHT22;8356;51.214;3.270;2022-07-29T08:41:23;640.00;2432.00
16491;DHT22;8356;51.214;3.270;2022-07-29T08:43:49;640.10;2432.00
16491;DHT22;8356;51.214;3.270;2022-07-29T08:46:15;640.20;2432.00
16491;DHT22;8356;51.214;3.270;2022-07-29T08:48:42;640.20;2432.00
16491;DHT22;8356;51.214;3.270;2022-07-29T08:51:08;640.30;2432.00
16491;DHT22;8356;51.214;3.270;2022-07-29T08:53:42;640.30;2432.00
16491;DHT22;8356;51.214;3.270;2022-07-29T08:56:11;640.40;2432.00
16491;DHT22;8356;51.214;3.270;2022-07-29T08:58:37;640.50;2432.00
16491;DHT22;8356;51.214;3.270;2022-07-29T09:01:03;640.60;2432.00
16491;DHT22;8356;51.214;3.270;2022-07-29T09:03:33;640.80;2432.00
16491;DHT22;8356;51.214;3.270;2022-07-29T09:06:00;665.60;2432.00
16491;DHT22;8356;51.214;3.270;2022-07-29T09:08:27;665.60;2432.00
16491;DHT22;8356;51.214;3.270;2022-07-29T09:10:54;640.80;2432.00
16491;DHT22;8356;51.214;3.270;2022-07-29T09:13:21;640.80;2432.00
16491;DHT22;8356;51.214;3.270;2022-07-29T09:15:47;640.90;2432.00
16491;DHT22;8356;51.214;3.270;2022-07-29T09:21:02;665.80;2432.00
16491;DHT22;8356;51.214;3.270;2022-07-29T09:24:10;665.90;2432.00
16491;DHT22;8356;51.214;3.270;2022-07-29T09:26:40;665.90;2432.00
16491;DHT22;8356;51.214;3.270;2022-07-29T09:29:19;666.00;2432.00
16491;DHT22;8356;51.214;3.270;2022-07-29T09:31:50;666.00;2432.00
16491;DHT22;8356;51.214;3.270;2022-07-29T09:34:22;666.00;2432.00
16491;DHT22;8356;51.214;3.270;2022-07-29T09:36:49;666.00;2432.00
16491;DHT22;8356;51.214;3.270;2022-07-29T09:39:26;666.00;2432.00
16491;DHT22;8356;51.214;3.270;2022-07-29T09:41:54;665.90;2432.00
16491;DHT22;8356;51.214;3.270;2022-07-29T09:44:22;666.20;2432.00
16491;DHT22;8356;51.214;3.270;2022-07-29T09:46:59;666.50;2432.00
16491;DHT22;8356;51.214;3.270;2022-07-29T09:49:36;691.20;2432.00
16491;DHT22;8356;51.214;3.270;2022-07-29T09:52:14;666.50;2432.00
16491;DHT22;8356;51.214;3.270;2022-07-29T09:54:40;666.30;2432.00
16491;DHT22;8356;51.214;3.270;2022-07-29T09:57:08;666.50;2432.00
16491;DHT22;8356;51.214;3.270;2022-07-29T09:59:38;666.50;2432.00
16491;DHT22;8356;51.214;3.270;2022-07-29T10:02:14;666.50;2432.00
16491;DHT22;8356;51.214;3.270;2022-07-29T10:04:40;691.20;2432.00
16491;DHT22;8356;51.214;3.270;2022-07-29T10:07:06;691.20;2432.00
16491;DHT22;8356;51.214;3.270;2022-07-29T10:09:33;666.50;2432.00
16491;DHT22;8356;51.214;3.270;2022-07-29T10:12:12;666.40;2432.00
16491;DHT22;8356;51.214;3.270;2022-07-29T10:14:40;666.30;2432.00
16491;DHT22;8356;51.214;3.270;2022-07-29T10:17:07;691.60;2432.00
16491;DHT22;8356;51.214;3.270;2022-07-29T10:19:34;691.50;2432.00
16491;DHT22;8356;51.214;3.270;2022-07-29T10:22:01;691.70;2432.00
16491;DHT22;8356;51.214;3.270;2022-07-29T10:24:29;691.90;2432.00
16491;DHT22;8356;51.214;3.270;2022-07-29T10:26:56;691.60;2432.00
16491;DHT22;8356;51.214;3.270;2022-07-29T10:29:23;691.40;2432.00
16491;DHT22;8356;51.214;3.270;2022-07-29T10:35:09;691.20;2432.00
16491;DHT22;8356;51.214;3.270;2022-07-29T10:43:43;691.60;2432.00
16491;DHT22;8356;51.214;3.270;2022-07-29T10:46:10;691.90;2432.00
16491;DHT22;8356;51.214;3.270;2022-07-29T10:54:17;716.80;2432.00
16491;DHT22;8356;51.214;3.270;2022-07-29T10:56:43;717.00;2432.00
16491;DHT22;8356;51.214;3.270;2022-07-29T11:01:47;717.10;2432.00
16491;DHT22;8356;51.214;3.270;2022-07-29T11:04:13;716.80;2432.00
16491;DHT22;8356;51.214;3.270;2022-07-29T11:09:23;691.90;2432.00
16491;DHT22;8356;51.214;3.270;2022-07-29T11:11:49;692.10;2432.00
16491;DHT22;8356;51.214;3.270;2022-07-29T11:14:15;716.90;2432.00
16491;DHT22;8356;51.214;3.270;2022-07-29T11:19:25;717.10;2432.00
16491;DHT22;8356;51.214;3.270;2022-07-29T11:21:50;717.10;2432.00
16491;DHT22;8356;51.214;3.270;2022-07-29T11:24:22;717.20;2432.00
16491;DHT22;8356;51.214;3.270;2022-07-29T11:27:17;717.10;2432.00
16491;DHT22;8356;51.214;3.270;2022-07-29T11:29:56;717.10;2432.00
16491;DHT22;8356;51.214;3.270;2022-07-29T11:32:23;717.20;2432.00
16491;DHT22;8356;51.214;3.270;2022-07-29T11:37:37;717.00;2432.00
16491;DHT22;8356;51.214;3.270;2022-07-29T11:45:08;716.90;2432.00
16491;DHT22;8356;51.214;3.270;2022-07-29T11:47:37;716.90;2432.00
16491;DHT22;8356;51.214;3.270;2022-07-29T11:50:10;717.10;2432.00
16491;DHT22;8356;51.214;3.270;2022-07-29T11:52:46;716.90;2432.00
16491;DHT22;8356;51.214;3.270;2022-07-29T11:55:17;716.90;2432.00
16491;DHT22;8356;51.214;3.270;2022-07-29T11:57:54;717.00;2432.00
16491;DHT22;8356;51.214;3.270;2022-07-29T12:00:35;717.00;2432.00
16491;DHT22;8356;51.214;3.270;2022-07-29T12:03:03;717.20;2432.00
16491;DHT22;8356;51.214;3.270;2022-07-29T12:08:12;717.30;2432.00
16491;DHT22;8356;51.214;3.270;2022-07-29T12:10:39;717.30;2432.00
16491;DHT22;8356;51.214;3.270;2022-07-29T12:13:05;717.20;2432.00
16491;DHT22;8356;51.214;3.270;2022-07-29T12:15:31;717.20;2432.00
16491;DHT22;8356;51.214;3.270;2022-07-29T12:17:57;717.00;2432.00
16491;DHT22;8356;51.214;3.270;2022-07-29T12:20:24;717.00;2432.00
16491;DHT22;8356;51.214;3.270;2022-07-29T12:22:50;692.10;2432.00
16491;DHT22;8356;51.214;3.270;2022-07-29T12:25:18;692.10;2432.00
16491;DHT22;8356;51.214;3.270;2022-07-29T12:27:44;692.10;2432.00
16491;DHT22;8356;51.214;3.270;2022-07-29T12:30:13;717.00;2432.00
16491;DHT22;8356;51.214;3.270;2022-07-29T12:32:45;717.10;2432.00
16491;DHT22;8356;51.214;3.270;2022-07-29T12:35:14;717.50;2432.00
16491;DHT22;8356;51.214;3.270;2022-07-29T12:37:41;717.70;2432.00
16491;DHT22;8356;51.214;3.270;2022-07-29T12:40:09;717.70;2432.00
16491;DHT22;8356;51.214;3.270;2022-07-29T12:42:35;717.60;2432.00
16491;DHT22;8356;51.214;3.270;2022-07-29T12:45:01;717.70;2432.00
16491;DHT22;8356;51.214;3.270;2022-07-29T12:47:28;742.40;2432.00
16491;DHT22;8356;51.214;3.270;2022-07-29T12:50:10;717.70;2432.00
16491;DHT22;8356;51.214;3.270;2022-07-29T12:52:36;717.60;2432.00
16491;DHT22;8356;51.214;3.270;2022-07-29T12:55:02;717.50;2432.00
16491;DHT22;8356;51.214;3.270;2022-07-29T12:57:28;742.40;2432.00
16491;DHT22;8356;51.214;3.270;2022-07-29T13:02:30;742.50;2432.00
16491;DHT22;8356;51.214;3.270;2022-07-29T13:04:57;717.30;2432.00
16491;DHT22;8356;51.214;3.270;2022-07-29T13:07:28;717.20;2432.00
16491;DHT22;8356;51.214;3.270;2022-07-29T13:10:13;717.20;2432.00
16491;DHT22;8356;51.214;3.270;2022-07-29T13:15:43;717.50;2432.00
16491;DHT22;8356;51.214;3.270;2022-07-29T13:18:32;717.20;2432.00
16491;DHT22;8356;51.214;3.270;2022-07-29T13:21:11;717.20;2432.00
16491;DHT22;8356;51.214;3.270;2022-07-29T13:23:37;717.20;2432.00
16491;DHT22;8356;51.214;3.270;2022-07-29T13:26:09;717.00;2406.40
16491;DHT22;8356;51.214;3.270;2022-07-29T13:28:37;692.10;2406.40
16491;DHT22;8356;51.214;3.270;2022-07-29T13:31:03;716.80;2432.00
16491;DHT22;8356;51.214;3.270;2022-07-29T13:33:30;717.00;2432.00
16491;DHT22;8356;51.214;3.270;2022-07-29T13:35:55;717.20;2432.00
16491;DHT22;8356;51.214;3.270;2022-07-29T13:38:21;717.20;2432.00
16491;DHT22;8356;51.214;3.270;2022-07-29T13:40:47;717.10;2432.00
16491;DHT22;8356;51.214;3.270;2022-07-29T13:43:13;717.00;2432.00
16491;DHT22;8356;51.214;3.270;2022-07-29T13:45:38;717.00;2432.00
16491;DHT22;8356;51.214;3.270;2022-07-29T13:48:04;717.10;2432.00
16491;DHT22;8356;51.214;3.270;2022-07-29T13:50:31;716.90;2432.00
16491;DHT22;8356;51.214;3.270;2022-07-29T13:52:58;691.90;2432.00
16491;DHT22;8356;51.214;3.270;2022-07-29T13:55:23;691.80;2432.00
16491;DHT22;8356;51.214;3.270;2022-07-29T13:57:49;716.80;2432.00
16491;DHT22;8356;51.214;3.270;2022-07-29T14:00:15;717.00;2432.00
16491;DHT22;8356;51.214;3.270;2022-07-29T14:02:42;692.00;2432.00
16491;DHT22;8356;51.214;3.270;2022-07-29T14:05:08;691.90;2432.00
16491;DHT22;8356;51.214;3.270;2022-07-29T14:07:36;691.60;2432.00
16491;DHT22;8356;51.214;3.270;2022-07-29T14:10:02;691.80;2432.00
16491;DHT22;8356;51.214;3.270;2022-07-29T14:12:28;691.90;2432.00
16491;DHT22;8356;51.214;3.270;2022-07-29T14:14:54;716.80;2432.00
16491;DHT22;8356;51.214;3.270;2022-07-29T14:17:19;692.10;2432.00
16491;DHT22;8356;51.214;3.270;2022-07-29T14:19:45;717.00;2432.00
16491;DHT22;8356;51.214;3.270;2022-07-29T14:22:11;716.80;2432.00
16491;DHT22;8356;51.214;3.270;2022-07-29T14:24:37;691.90;2432.00
16491;DHT22;8356;51.214;3.270;2022-07-29T14:27:03;691.80;2432.00
16491;DHT22;8356;51.214;3.270;2022-07-29T14:29:29;691.70;2432.00
16491;DHT22;8356;51.214;3.270;2022-07-29T14:31:55;691.50;2432.00
16491;DHT22;8356;51.214;3.270;2022-07-29T14:34:20;691.90;2432.00
16491;DHT22;8356;51.214;3.270;2022-07-29T14:36:46;691.60;2432.00
16491;DHT22;8356;51.214;3.270;2022-07-29T14:39:12;691.70;2432.00
16491;DHT22;8356;51.214;3.270;2022-07-29T14:41:37;691.40;2432.00
16491;DHT22;8356;51.214;3.270;2022-07-29T14:44:03;691.40;2432.00
16491;DHT22;8356;51.214;3.270;2022-07-29T14:46:29;691.90;2432.00
16491;DHT22;8356;51.214;3.270;2022-07-29T14:48:55;691.60;2432.00
16491;DHT22;8356;51.214;3.270;2022-07-29T14:51:20;691.50;2432.00
16491;DHT22;8356;51.214;3.270;2022-07-29T14:53:46;691.60;2432.00
16491;DHT22;8356;51.214;3.270;2022-07-29T14:56:12;691.20;2432.00
16491;DHT22;8356;51.214;3.270;2022-07-29T14:58:38;666.20;2432.00
16491;DHT22;8356;51.214;3.270;2022-07-29T15:01:04;666.00;2432.00
16491;DHT22;8356;51.214;3.270;2022-07-29T15:03:29;665.90;2432.00
16491;DHT22;8356;51.214;3.270;2022-07-29T15:05:55;665.80;2432.00
16491;DHT22;8356;51.214;3.270;2022-07-29T15:08:21;665.80;2432.00
16491;DHT22;8356;51.214;3.270;2022-07-29T15:10:46;665.90;2432.00
16491;DHT22;8356;51.214;3.270;2022-07-29T15:13:12;665.90;2432.00
16491;DHT22;8356;51.214;3.270;2022-07-29T15:15:38;665.90;2432.00
16491;DHT22;8356;51.214;3.270;2022-07-29T15:18:04;665.90;2432.00
16491;DHT22;8356;51.214;3.270;2022-07-29T15:20:30;665.80;2432.00
16491;DHT22;8356;51.214;3.270;2022-07-29T15:22:56;665.80;2432.00
16491;DHT22;8356;51.214;3.270;2022-07-29T15:25:23;665.60;2432.00
16491;DHT22;8356;51.214;3.270;2022-07-29T15:27:48;640.90;2432.00
16491;DHT22;8356;51.214;3.270;2022-07-29T15:30:14;665.80;2432.00
16491;DHT22;8356;51.214;3.270;2022-07-29T15:32:42;665.90;2432.00
16491;DHT22;8356;51.214;3.270;2022-07-29T15:35:08;665.90;2432.00
16491;DHT22;8356;51.214;3.270;2022-07-29T15:37:38;665.60;2432.00
16491;DHT22;8356;51.214;3.270;2022-07-29T15:40:05;640.70;2432.00
16491;DHT22;8356;51.214;3.270;2022-07-29T15:42:30;640.60;2432.00
16491;DHT22;8356;51.214;3.270;2022-07-29T15:44:56;640.60;2432.00
16491;DHT22;8356;51.214;3.270;2022-07-29T15:47:22;640.40;2432.00
16491;DHT22;8356;51.214;3.270;2022-07-29T15:49:47;640.70;2432.00
16491;DHT22;8356;51.214;3.270;2022-07-29T15:52:14;640.90;2432.00
16491;DHT22;8356;51.214;3.270;2022-07-29T15:54:40;640.90;2432.00
16491;DHT22;8356;51.214;3.270;2022-07-29T15:57:06;665.60;2432.00
16491;DHT22;8356;51.214;3.270;2022-07-29T15:59:32;640.90;2432.00
16491;DHT22;8356;51.214;3.270;2022-07-29T16:01:59;640.90;2432.00